sensor_id;sensor_type;location;lat;lon;timestamp;pressure;altitude;pressure_sealevel;temperature;humidity
70133;BME280;57495;49.922;7.966;2022-09-09T00:01:19;99450.22;;;16.03;91.14
70133;BME280;57495;49.922;7.966;2022-09-09T00:03:26;99449.56;;;16.01;91.18
70133;BME280;57495;49.922;7.966;2022-09-09T00:05:32;99444.19;;;16.01;90.72
70133;BME280;57495;49.922;7.966;2022-09-09T00:07:42;99449.44;;;15.88;90.65
70133;BME280;57495;49.922;7.966;2022-09-09T00:09:47;99439.59;;;15.80;90.46
70133;BME280;57495;49.922;7.966;2022-09-09T00:11:52;99446.06;;;15.86;90.84
70133;BME280;57495;49.922;7.966;2022-09-09T00:13:58;99445.66;;;15.82;90.37
70133;BME280;57495;49.922;7.966;2022-09-09T00:16:08;99438.50;;;15.75;89.79
70133;BME280;57495;49.922;7.966;2022-09-09T00:18:20;99438.13;;;15.78;89.49
70133;BME280;57495;49.922;7.966;2022-09-09T00:20:28;99441.66;;;15.78;89.28
70133;BME280;57495;49.922;7.966;2022-09-09T00:22:32;99444.06;;;15.73;89.16
70133;BME280;57495;49.922;7.966;2022-09-09T00:24:38;99444.56;;;15.47;91.63
70133;BME280;57495;49.922;7.966;2022-09-09T00:26:45;99451.53;;;15.56;90.75
70133;BME280;57495;49.922;7.966;2022-09-09T00:28:54;99448.38;;;15.68;89.11
70133;BME280;57495;49.922;7.966;2022-09-09T00:31:11;99436.34;;;15.70;88.73
70133;BME280;57495;49.922;7.966;2022-09-09T00:33:15;99439.59;;;15.65;88.97
70133;BME280;57495;49.922;7.966;2022-09-09T00:35:23;99444.75;;;15.75;89.52
70133;BME280;57495;49.922;7.966;2022-09-09T00:37:26;99435.78;;;15.75;89.70
70133;BME280;57495;49.922;7.966;2022-09-09T00:39:32;99431.13;;;15.83;89.18
70133;BME280;57495;49.922;7.966;2022-09-09T00:41:49;99426.81;;;15.89;88.82
70133;BME280;57495;49.922;7.966;2022-09-09T00:43:57;99426.38;;;15.85;88.68
70133;BME280;57495;49.922;7.966;2022-09-09T00:46:13;99436.97;;;15.87;88.34
70133;BME280;57495;49.922;7.966;2022-09-09T00:48:18;99435.69;;;15.83;88.63
70133;BME280;57495;49.922;7.966;2022-09-09T00:50:35;99436.88;;;15.80;88.93
70133;BME280;57495;49.922;7.966;2022-09-09T00:52:45;99435.06;;;15.81;89.05
70133;BME280;57495;49.922;7.966;2022-09-09T00:54:55;99434.16;;;15.74;89.41
70133;BME280;57495;49.922;7.966;2022-09-09T00:57:06;99429.50;;;15.68;89.70
70133;BME280;57495;49.922;7.966;2022-09-09T00:59:23;99438.13;;;15.63;90.18
70133;BME280;57495;49.922;7.966;2022-09-09T01:01:27;99434.22;;;15.65;90.26
70133;BME280;57495;49.922;7.966;2022-09-09T01:03:34;99442.97;;;15.68;90.43
70133;BME280;57495;49.922;7.966;2022-09-09T01:05:41;99436.25;;;15.63;90.81
70133;BME280;57495;49.922;7.966;2022-09-09T01:07:47;99430.13;;;15.70;90.49
70133;BME280;57495;49.922;7.966;2022-09-09T01:09:55;99429.72;;;15.73;90.08
70133;BME280;57495;49.922;7.966;2022-09-09T01:12:02;99428.63;;;15.67;90.42
70133;BME280;57495;49.922;7.966;2022-09-09T01:14:14;99428.75;;;15.59;91.21
70133;BME280;57495;49.922;7.966;2022-09-09T01:16:20;99426.41;;;15.71;90.56
70133;BME280;57495;49.922;7.966;2022-09-09T01:18:26;99429.38;;;15.76;90.25
70133;BME280;57495;49.922;7.966;2022-09-09T01:20:32;99426.06;;;15.74;90.30
70133;BME280;57495;49.922;7.966;2022-09-09T01:22:44;99429.28;;;15.69;90.44
70133;BME280;57495;49.922;7.966;2022-09-09T01:25:11;99422.03;;;15.70;90.28
70133;BME280;57495;49.922;7.966;2022-09-09T01:27:18;99425.94;;;15.67;90.57
70133;BME280;57495;49.922;7.966;2022-09-09T01:29:21;99416.09;;;15.74;89.56
70133;BME280;57495;49.922;7.966;2022-09-09T01:31:28;99410.53;;;15.76;89.68
70133;BME280;57495;49.922;7.966;2022-09-09T01:33:31;99419.44;;;15.76;89.34
70133;BME280;57495;49.922;7.966;2022-09-09T01:35:39;99413.22;;;15.76;89.55
70133;BME280;57495;49.922;7.966;2022-09-09T01:37:44;99416.19;;;15.81;89.06
70133;BME280;57495;49.922;7.966;2022-09-09T01:39:45;99425.09;;;15.81;88.93
70133;BME280;57495;49.922;7.966;2022-09-09T01:41:47;99422.78;;;15.78;88.99
70133;BME280;57495;49.922;7.966;2022-09-09T01:43:50;99431.50;;;15.44;91.34
70133;BME280;57495;49.922;7.966;2022-09-09T01:45:54;99435.94;;;15.52;90.75
70133;BME280;57495;49.922;7.966;2022-09-09T01:47:56;99437.41;;;15.54;91.29
70133;BME280;57495;49.922;7.966;2022-09-09T01:49:59;99441.41;;;15.58;90.59
70133;BME280;57495;49.922;7.966;2022-09-09T01:52:02;99445.78;;;15.44;90.77
70133;BME280;57495;49.922;7.966;2022-09-09T01:54:04;99438.16;;;15.48;91.25
70133;BME280;57495;49.922;7.966;2022-09-09T01:56:14;99447.34;;;15.54;90.29
70133;BME280;57495;49.922;7.966;2022-09-09T01:58:28;99446.34;;;15.55;89.60
70133;BME280;57495;49.922;7.966;2022-09-09T02:00:35;99443.44;;;15.56;88.97
70133;BME280;57495;49.922;7.966;2022-09-09T02:02:43;99447.53;;;15.52;88.89
70133;BME280;57495;49.922;7.966;2022-09-09T02:04:49;99444.69;;;15.39;90.29
70133;BME280;57495;49.922;7.966;2022-09-09T02:06:53;99445.06;;;15.36;89.40
70133;BME280;57495;49.922;7.966;2022-09-09T02:08:57;99452.03;;;15.30;89.19
70133;BME280;57495;49.922;7.966;2022-09-09T02:11:05;99448.53;;;15.15;89.81
70133;BME280;57495;49.922;7.966;2022-09-09T02:13:10;99447.59;;;15.07;90.34
70133;BME280;57495;49.922;7.966;2022-09-09T02:15:18;99447.69;;;15.14;89.67
70133;BME280;57495;49.922;7.966;2022-09-09T02:17:26;99441.38;;;15.22;89.03
70133;BME280;57495;49.922;7.966;2022-09-09T02:19:32;99450.56;;;15.13;90.00
70133;BME280;57495;49.922;7.966;2022-09-09T02:21:35;99445.09;;;15.06;89.88
70133;BME280;57495;49.922;7.966;2022-09-09T02:23:39;99445.47;;;15.03;90.82
70133;BME280;57495;49.922;7.966;2022-09-09T02:25:43;99445.47;;;15.03;90.93
70133;BME280;57495;49.922;7.966;2022-09-09T02:27:47;99450.13;;;15.09;89.92
70133;BME280;57495;49.922;7.966;2022-09-09T02:29:52;99448.06;;;14.96;90.31
70133;BME280;57495;49.922;7.966;2022-09-09T02:31:57;99438.13;;;14.97;91.11
70133;BME280;57495;49.922;7.966;2022-09-09T02:34:05;99444.16;;;14.99;91.74
70133;BME280;57495;49.922;7.966;2022-09-09T02:36:10;99430.63;;;15.07;91.74
70133;BME280;57495;49.922;7.966;2022-09-09T02:38:15;99432.47;;;15.21;91.97
70133;BME280;57495;49.922;7.966;2022-09-09T02:40:17;99433.13;;;15.23;92.24
70133;BME280;57495;49.922;7.966;2022-09-09T02:42:19;99429.31;;;15.18;93.43
70133;BME280;57495;49.922;7.966;2022-09-09T02:44:20;99434.88;;;15.16;93.52
70133;BME280;57495;49.922;7.966;2022-09-09T02:46:35;99434.03;;;15.16;94.12
70133;BME280;57495;49.922;7.966;2022-09-09T02:48:44;99436.44;;;15.25;93.05
70133;BME280;57495;49.922;7.966;2022-09-09T02:50:55;99436.72;;;15.31;92.51
70133;BME280;57495;49.922;7.966;2022-09-09T02:53:06;99420.00;;;15.35;92.21
70133;BME280;57495;49.922;7.966;2022-09-09T02:55:17;99421.44;;;15.38;92.84
70133;BME280;57495;49.922;7.966;2022-09-09T02:57:25;99416.75;;;15.40;92.45
70133;BME280;57495;49.922;7.966;2022-09-09T02:59:29;99411.34;;;15.40;92.78
70133;BME280;57495;49.922;7.966;2022-09-09T03:01:30;99406.78;;;15.40;92.94
70133;BME280;57495;49.922;7.966;2022-09-09T03:03:32;99408.66;;;15.40;92.38
70133;BME280;57495;49.922;7.966;2022-09-09T03:05:34;99407.16;;;15.37;92.70
70133;BME280;57495;49.922;7.966;2022-09-09T03:07:37;99412.41;;;15.09;94.28
70133;BME280;57495;49.922;7.966;2022-09-09T03:09:39;99422.41;;;15.15;93.80
70133;BME280;57495;49.922;7.966;2022-09-09T03:11:42;99429.41;;;15.10;93.53
70133;BME280;57495;49.922;7.966;2022-09-09T03:13:43;99422.72;;;14.91;95.31
70133;BME280;57495;49.922;7.966;2022-09-09T03:15:45;99429.31;;;15.03;94.67
70133;BME280;57495;49.922;7.966;2022-09-09T03:17:46;99421.50;;;14.78;97.12
70133;BME280;57495;49.922;7.966;2022-09-09T03:19:48;99430.97;;;14.74;97.30
70133;BME280;57495;49.922;7.966;2022-09-09T03:21:52;99444.72;;;14.64;98.37
70133;BME280;57495;49.922;7.966;2022-09-09T03:23:55;99439.50;;;14.63;99.21
70133;BME280;57495;49.922;7.966;2022-09-09T03:25:57;99441.63;;;14.67;99.65
70133;BME280;57495;49.922;7.966;2022-09-09T03:27:58;99446.13;;;14.75;98.85
70133;BME280;57495;49.922;7.966;2022-09-09T03:30:00;99445.91;;;14.77;98.43
70133;BME280;57495;49.922;7.966;2022-09-09T03:32:04;99431.16;;;14.87;97.53
70133;BME280;57495;49.922;7.966;2022-09-09T03:34:05;99438.97;;;14.97;97.02
70133;BME280;57495;49.922;7.966;2022-09-09T03:36:08;99433.03;;;15.02;96.50
70133;BME280;57495;49.922;7.966;2022-09-09T03:38:10;99438.69;;;15.07;96.08
70133;BME280;57495;49.922;7.966;2022-09-09T03:40:13;99437.28;;;15.11;95.60
70133;BME280;57495;49.922;7.966;2022-09-09T03:42:16;99430.22;;;15.10;95.99
70133;BME280;57495;49.922;7.966;2022-09-09T03:44:19;99426.53;;;15.11;95.64
70133;BME280;57495;49.922;7.966;2022-09-09T03:46:22;99425.13;;;15.15;95.21
70133;BME280;57495;49.922;7.966;2022-09-09T03:48:24;99416.03;;;15.16;95.67
70133;BME280;57495;49.922;7.966;2022-09-09T03:50:25;99422.06;;;15.18;95.52
70133;BME280;57495;49.922;7.966;2022-09-09T03:52:27;99430.31;;;15.17;96.38
70133;BME280;57495;49.922;7.966;2022-09-09T03:54:29;99425.41;;;15.20;95.95
70133;BME280;57495;49.922;7.966;2022-09-09T03:56:32;99417.59;;;15.25;95.59
70133;BME280;57495;49.922;7.966;2022-09-09T03:58:34;99404.50;;;15.22;95.87
70133;BME280;57495;49.922;7.966;2022-09-09T04:00:35;99413.69;;;15.28;95.50
70133;BME280;57495;49.922;7.966;2022-09-09T04:02:37;99416.81;;;15.32;94.72
70133;BME280;57495;49.922;7.966;2022-09-09T04:04:39;99426.72;;;14.95;96.84
70133;BME280;57495;49.922;7.966;2022-09-09T04:06:40;99434.13;;;14.93;98.22
70133;BME280;57495;49.922;7.966;2022-09-09T04:08:42;99419.09;;;14.98;97.41
70133;BME280;57495;49.922;7.966;2022-09-09T04:10:44;99418.81;;;14.93;97.54
70133;BME280;57495;49.922;7.966;2022-09-09T04:12:48;99423.00;;;14.81;98.50
70133;BME280;57495;49.922;7.966;2022-09-09T04:14:49;99424.78;;;14.88;98.28
70133;BME280;57495;49.922;7.966;2022-09-09T04:16:50;99424.00;;;14.80;98.25
70133;BME280;57495;49.922;7.966;2022-09-09T04:18:52;99421.66;;;14.62;99.61
70133;BME280;57495;49.922;7.966;2022-09-09T04:20:53;99422.75;;;14.53;100.00
70133;BME280;57495;49.922;7.966;2022-09-09T04:22:57;99427.63;;;14.72;98.79
70133;BME280;57495;49.922;7.966;2022-09-09T04:24:58;99428.66;;;14.86;97.27
70133;BME280;57495;49.922;7.966;2022-09-09T04:26:59;99434.25;;;14.84;97.25
70133;BME280;57495;49.922;7.966;2022-09-09T04:29:02;99431.56;;;14.84;97.38
70133;BME280;57495;49.922;7.966;2022-09-09T04:31:05;99432.47;;;14.92;96.12
70133;BME280;57495;49.922;7.966;2022-09-09T04:33:07;99444.63;;;14.87;95.92
70133;BME280;57495;49.922;7.966;2022-09-09T04:35:09;99443.22;;;14.92;95.73
70133;BME280;57495;49.922;7.966;2022-09-09T04:37:10;99440.16;;;14.80;96.67
70133;BME280;57495;49.922;7.966;2022-09-09T04:39:12;99446.78;;;14.77;96.84
70133;BME280;57495;49.922;7.966;2022-09-09T04:41:15;99447.41;;;14.64;97.92
70133;BME280;57495;49.922;7.966;2022-09-09T04:43:16;99446.19;;;14.67;98.32
70133;BME280;57495;49.922;7.966;2022-09-09T04:45:20;99447.09;;;14.59;98.75
70133;BME280;57495;49.922;7.966;2022-09-09T04:47:21;99442.22;;;14.55;99.42
70133;BME280;57495;49.922;7.966;2022-09-09T04:49:23;99455.66;;;14.63;99.05
70133;BME280;57495;49.922;7.966;2022-09-09T04:51:24;99454.56;;;14.72;99.29
70133;BME280;57495;49.922;7.966;2022-09-09T04:53:26;99448.88;;;14.82;98.37
70133;BME280;57495;49.922;7.966;2022-09-09T04:55:27;99450.47;;;14.91;97.64
70133;BME280;57495;49.922;7.966;2022-09-09T04:57:28;99451.22;;;15.00;98.91
70133;BME280;57495;49.922;7.966;2022-09-09T04:59:31;99453.28;;;14.98;98.37
70133;BME280;57495;49.922;7.966;2022-09-09T05:01:34;99462.66;;;15.02;97.65
70133;BME280;57495;49.922;7.966;2022-09-09T05:03:36;99464.97;;;15.05;97.57
70133;BME280;57495;49.922;7.966;2022-09-09T05:05:37;99461.06;;;15.07;97.54
70133;BME280;57495;49.922;7.966;2022-09-09T05:07:38;99460.25;;;15.07;97.94
70133;BME280;57495;49.922;7.966;2022-09-09T05:09:40;99466.56;;;15.14;97.32
70133;BME280;57495;49.922;7.966;2022-09-09T05:11:41;99466.16;;;15.17;96.48
70133;BME280;57495;49.922;7.966;2022-09-09T05:13:44;99455.31;;;14.96;96.58
70133;BME280;57495;49.922;7.966;2022-09-09T05:15:51;99466.97;;;14.73;98.29
70133;BME280;57495;49.922;7.966;2022-09-09T05:17:56;99460.69;;;14.66;98.63
70133;BME280;57495;49.922;7.966;2022-09-09T05:19:59;99473.00;;;14.60;98.80
70133;BME280;57495;49.922;7.966;2022-09-09T05:22:00;99466.53;;;14.46;99.61
70133;BME280;57495;49.922;7.966;2022-09-09T05:24:01;99473.00;;;14.37;100.00
70133;BME280;57495;49.922;7.966;2022-09-09T05:26:04;99470.59;;;14.42;100.00
70133;BME280;57495;49.922;7.966;2022-09-09T05:28:06;99463.31;;;14.28;100.00
70133;BME280;57495;49.922;7.966;2022-09-09T05:30:09;99462.03;;;14.24;100.00
70133;BME280;57495;49.922;7.966;2022-09-09T05:32:10;99468.78;;;14.20;100.00
70133;BME280;57495;49.922;7.966;2022-09-09T05:34:15;99462.38;;;14.21;100.00
70133;BME280;57495;49.922;7.966;2022-09-09T05:36:17;99465.78;;;14.15;100.00
70133;BME280;57495;49.922;7.966;2022-09-09T05:38:19;99462.75;;;14.18;100.00
70133;BME280;57495;49.922;7.966;2022-09-09T05:40:20;99463.75;;;14.17;100.00
70133;BME280;57495;49.922;7.966;2022-09-09T05:42:22;99466.78;;;14.14;100.00
70133;BME280;57495;49.922;7.966;2022-09-09T05:44:23;99463.56;;;14.18;100.00
70133;BME280;57495;49.922;7.966;2022-09-09T05:46:27;99469.31;;;14.15;100.00
70133;BME280;57495;49.922;7.966;2022-09-09T05:48:29;99472.16;;;14.14;100.00
70133;BME280;57495;49.922;7.966;2022-09-09T05:50:32;99474.09;;;14.05;100.00
70133;BME280;57495;49.922;7.966;2022-09-09T05:52:33;99474.50;;;14.17;100.00
70133;BME280;57495;49.922;7.966;2022-09-09T05:54:35;99478.63;;;14.27;100.00
70133;BME280;57495;49.922;7.966;2022-09-09T05:56:37;99478.06;;;14.32;100.00
70133;BME280;57495;49.922;7.966;2022-09-09T05:58:39;99485.91;;;14.42;100.00
70133;BME280;57495;49.922;7.966;2022-09-09T06:00:40;99480.81;;;14.47;100.00
70133;BME280;57495;49.922;7.966;2022-09-09T06:02:41;99490.75;;;14.46;100.00
70133;BME280;57495;49.922;7.966;2022-09-09T06:04:43;99490.88;;;14.53;100.00
70133;BME280;57495;49.922;7.966;2022-09-09T06:06:46;99497.41;;;14.59;100.00
70133;BME280;57495;49.922;7.966;2022-09-09T06:08:51;99491.47;;;14.63;100.00
70133;BME280;57495;49.922;7.966;2022-09-09T06:10:53;99492.53;;;14.77;100.00
70133;BME280;57495;49.922;7.966;2022-09-09T06:12:54;99493.19;;;14.79;100.00
70133;BME280;57495;49.922;7.966;2022-09-09T06:14:55;99495.47;;;14.82;100.00
70133;BME280;57495;49.922;7.966;2022-09-09T06:16:57;99494.00;;;14.80;100.00
70133;BME280;57495;49.922;7.966;2022-09-09T06:18:58;99495.47;;;14.82;100.00
70133;BME280;57495;49.922;7.966;2022-09-09T06:21:01;99487.31;;;14.76;100.00
70133;BME280;57495;49.922;7.966;2022-09-09T06:23:05;99486.09;;;14.78;100.00
70133;BME280;57495;49.922;7.966;2022-09-09T06:25:08;99483.72;;;14.83;100.00
70133;BME280;57495;49.922;7.966;2022-09-09T06:27:09;99481.31;;;14.88;100.00
70133;BME280;57495;49.922;7.966;2022-09-09T06:29:11;99486.59;;;14.82;100.00
70133;BME280;57495;49.922;7.966;2022-09-09T06:31:14;99485.94;;;14.95;100.00
70133;BME280;57495;49.922;7.966;2022-09-09T06:33:17;99484.84;;;15.04;100.00
70133;BME280;57495;49.922;7.966;2022-09-09T06:35:18;99475.75;;;15.05;100.00
70133;BME280;57495;49.922;7.966;2022-09-09T06:37:20;99477.31;;;15.29;100.00
70133;BME280;57495;49.922;7.966;2022-09-09T06:39:25;99480.00;;;15.44;100.00
70133;BME280;57495;49.922;7.966;2022-09-09T06:41:28;99472.44;;;15.54;99.15
70133;BME280;57495;49.922;7.966;2022-09-09T06:43:29;99485.09;;;15.54;99.54
70133;BME280;57495;49.922;7.966;2022-09-09T06:45:31;99474.22;;;15.47;99.57
70133;BME280;57495;49.922;7.966;2022-09-09T06:47:32;99470.03;;;15.74;98.30
70133;BME280;57495;49.922;7.966;2022-09-09T06:49:34;99467.59;;;15.64;98.22
70133;BME280;57495;49.922;7.966;2022-09-09T06:51:37;99467.47;;;15.73;97.58
70133;BME280;57495;49.922;7.966;2022-09-09T06:53:44;99467.88;;;15.70;96.83
70133;BME280;57495;49.922;7.966;2022-09-09T06:55:47;99472.13;;;15.94;97.33
70133;BME280;57495;49.922;7.966;2022-09-09T06:57:48;99472.69;;;16.11;96.67
70133;BME280;57495;49.922;7.966;2022-09-09T06:59:51;99473.34;;;16.34;95.73
70133;BME280;57495;49.922;7.966;2022-09-09T07:01:52;99468.94;;;16.55;94.15
70133;BME280;57495;49.922;7.966;2022-09-09T07:03:55;99470.06;;;16.67;93.44
70133;BME280;57495;49.922;7.966;2022-09-09T07:05:59;99469.72;;;16.77;94.72
70133;BME280;57495;49.922;7.966;2022-09-09T07:08:01;99470.91;;;16.68;91.25
70133;BME280;57495;49.922;7.966;2022-09-09T07:10:03;99474.44;;;16.68;90.43
70133;BME280;57495;49.922;7.966;2022-09-09T07:12:06;99470.47;;;16.64;92.18
70133;BME280;57495;49.922;7.966;2022-09-09T07:14:08;99475.28;;;16.47;90.10
70133;BME280;57495;49.922;7.966;2022-09-09T07:16:14;99471.19;;;16.51;92.52
70133;BME280;57495;49.922;7.966;2022-09-09T07:18:17;99483.88;;;16.79;90.88
70133;BME280;57495;49.922;7.966;2022-09-09T07:20:18;99480.53;;;17.05;90.29
70133;BME280;57495;49.922;7.966;2022-09-09T07:22:20;99486.06;;;17.25;89.21
70133;BME280;57495;49.922;7.966;2022-09-09T07:24:21;99486.59;;;17.07;87.95
70133;BME280;57495;49.922;7.966;2022-09-09T07:26:26;99485.00;;;17.19;89.21
70133;BME280;57495;49.922;7.966;2022-09-09T07:28:29;99480.06;;;16.95;85.67
70133;BME280;57495;49.922;7.966;2022-09-09T07:30:31;99478.66;;;16.99;86.94
70133;BME280;57495;49.922;7.966;2022-09-09T07:32:32;99490.72;;;17.03;86.78
70133;BME280;57495;49.922;7.966;2022-09-09T07:34:33;99481.69;;;17.24;86.02
70133;BME280;57495;49.922;7.966;2022-09-09T07:36:37;99481.50;;;17.26;85.01
70133;BME280;57495;49.922;7.966;2022-09-09T07:38:39;99481.25;;;17.20;83.60
70133;BME280;57495;49.922;7.966;2022-09-09T07:40:41;99495.44;;;17.29;83.53
70133;BME280;57495;49.922;7.966;2022-09-09T07:42:42;99489.59;;;17.26;81.95
70133;BME280;57495;49.922;7.966;2022-09-09T07:44:45;99483.75;;;17.22;83.03
70133;BME280;57495;49.922;7.966;2022-09-09T07:46:46;99484.94;;;17.54;82.19
70133;BME280;57495;49.922;7.966;2022-09-09T07:48:49;99476.44;;;17.57;82.05
70133;BME280;57495;49.922;7.966;2022-09-09T07:50:52;99480.78;;;17.52;81.83
70133;BME280;57495;49.922;7.966;2022-09-09T07:52:53;99486.97;;;17.39;82.47
70133;BME280;57495;49.922;7.966;2022-09-09T07:54:54;99498.84;;;17.45;81.26
70133;BME280;57495;49.922;7.966;2022-09-09T07:56:57;99502.53;;;17.37;80.81
70133;BME280;57495;49.922;7.966;2022-09-09T07:58:58;99497.84;;;17.17;80.89
70133;BME280;57495;49.922;7.966;2022-09-09T08:01:07;99505.81;;;17.26;80.21
70133;BME280;57495;49.922;7.966;2022-09-09T08:03:09;99505.31;;;17.09;82.06
70133;BME280;57495;49.922;7.966;2022-09-09T08:05:11;99516.25;;;17.29;82.16
70133;BME280;57495;49.922;7.966;2022-09-09T08:07:12;99518.94;;;17.29;82.66
70133;BME280;57495;49.922;7.966;2022-09-09T08:09:14;99513.84;;;17.54;82.05
70133;BME280;57495;49.922;7.966;2022-09-09T08:11:16;99516.13;;;17.44;82.33
70133;BME280;57495;49.922;7.966;2022-09-09T08:13:18;99513.19;;;17.45;81.27
70133;BME280;57495;49.922;7.966;2022-09-09T08:15:19;99522.16;;;17.52;81.24
70133;BME280;57495;49.922;7.966;2022-09-09T08:17:25;99512.34;;;17.45;80.78
70133;BME280;57495;49.922;7.966;2022-09-09T08:19:26;99525.09;;;17.57;80.95
70133;BME280;57495;49.922;7.966;2022-09-09T08:21:31;99513.91;;;17.61;80.78
70133;BME280;57495;49.922;7.966;2022-09-09T08:23:33;99515.56;;;17.62;80.04
70133;BME280;57495;49.922;7.966;2022-09-09T08:25:35;99516.56;;;17.54;79.87
70133;BME280;57495;49.922;7.966;2022-09-09T08:27:36;99517.56;;;17.46;80.02
70133;BME280;57495;49.922;7.966;2022-09-09T08:29:38;99520.44;;;17.38;80.68
70133;BME280;57495;49.922;7.966;2022-09-09T08:31:42;99524.53;;;17.27;79.81
70133;BME280;57495;49.922;7.966;2022-09-09T08:33:45;99532.59;;;17.55;79.37
70133;BME280;57495;49.922;7.966;2022-09-09T08:35:50;99526.47;;;17.82;78.26
70133;BME280;57495;49.922;7.966;2022-09-09T08:37:53;99526.25;;;17.83;78.58
70133;BME280;57495;49.922;7.966;2022-09-09T08:39:55;99526.38;;;18.10;78.49
70133;BME280;57495;49.922;7.966;2022-09-09T08:42:12;99520.59;;;18.20;78.73
70133;BME280;57495;49.922;7.966;2022-09-09T08:44:24;99530.72;;;18.04;80.24
70133;BME280;57495;49.922;7.966;2022-09-09T08:46:32;99519.81;;;17.84;80.40
70133;BME280;57495;49.922;7.966;2022-09-09T08:48:46;99519.47;;;17.94;79.11
70133;BME280;57495;49.922;7.966;2022-09-09T08:50:53;99515.53;;;18.10;80.70
70133;BME280;57495;49.922;7.966;2022-09-09T08:53:04;99519.03;;;17.90;81.69
70133;BME280;57495;49.922;7.966;2022-09-09T08:55:20;99520.63;;;17.78;82.42
70133;BME280;57495;49.922;7.966;2022-09-09T08:57:26;99531.94;;;17.95;82.37
70133;BME280;57495;49.922;7.966;2022-09-09T08:59:29;99521.94;;;17.89;82.26
70133;BME280;57495;49.922;7.966;2022-09-09T09:01:50;99529.03;;;17.96;81.85
70133;BME280;57495;49.922;7.966;2022-09-09T09:04:06;99542.00;;;18.14;78.70
70133;BME280;57495;49.922;7.966;2022-09-09T09:06:23;99525.19;;;18.32;76.63
70133;BME280;57495;49.922;7.966;2022-09-09T09:08:31;99528.31;;;18.56;75.66
70133;BME280;57495;49.922;7.966;2022-09-09T09:10:42;99524.19;;;18.73;74.53
70133;BME280;57495;49.922;7.966;2022-09-09T09:12:47;99521.25;;;18.95;72.41
70133;BME280;57495;49.922;7.966;2022-09-09T09:14:49;99520.81;;;19.11;71.55
70133;BME280;57495;49.922;7.966;2022-09-09T09:16:54;99517.22;;;19.44;72.49
70133;BME280;57495;49.922;7.966;2022-09-09T09:18:58;99526.25;;;18.65;71.99
70133;BME280;57495;49.922;7.966;2022-09-09T09:21:06;99527.91;;;18.52;74.34
70133;BME280;57495;49.922;7.966;2022-09-09T09:23:17;99530.41;;;18.54;74.07
70133;BME280;57495;49.922;7.966;2022-09-09T09:25:21;99523.56;;;18.98;72.78
70133;BME280;57495;49.922;7.966;2022-09-09T09:27:31;99526.91;;;19.07;70.30
70133;BME280;57495;49.922;7.966;2022-09-09T09:29:33;99524.31;;;19.45;68.50
70133;BME280;57495;49.922;7.966;2022-09-09T09:31:35;99521.63;;;19.32;68.13
70133;BME280;57495;49.922;7.966;2022-09-09T09:33:43;99513.31;;;19.85;65.83
70133;BME280;57495;49.922;7.966;2022-09-09T09:35:48;99522.38;;;19.59;65.98
70133;BME280;57495;49.922;7.966;2022-09-09T09:37:52;99520.00;;;19.11;68.09
70133;BME280;57495;49.922;7.966;2022-09-09T09:39:53;99525.72;;;19.61;66.88
70133;BME280;57495;49.922;7.966;2022-09-09T09:41:55;99522.78;;;19.63;65.38
70133;BME280;57495;49.922;7.966;2022-09-09T09:43:58;99535.78;;;19.41;65.46
70133;BME280;57495;49.922;7.966;2022-09-09T09:46:00;99528.31;;;19.23;66.92
70133;BME280;57495;49.922;7.966;2022-09-09T09:48:03;99533.34;;;18.72;66.50
70133;BME280;57495;49.922;7.966;2022-09-09T09:50:16;99527.69;;;18.54;65.35
70133;BME280;57495;49.922;7.966;2022-09-09T09:52:22;99523.97;;;18.68;66.77
70133;BME280;57495;49.922;7.966;2022-09-09T09:54:28;99527.84;;;19.46;64.39
70133;BME280;57495;49.922;7.966;2022-09-09T09:56:30;99526.94;;;19.72;64.59
70133;BME280;57495;49.922;7.966;2022-09-09T09:58:38;99519.38;;;20.26;63.42
70133;BME280;57495;49.922;7.966;2022-09-09T10:00:51;99523.75;;;20.65;61.33
70133;BME280;57495;49.922;7.966;2022-09-09T10:02:53;99522.31;;;20.56;59.04
70133;BME280;57495;49.922;7.966;2022-09-09T10:05:02;99492.69;;;20.48;58.70
70133;BME280;57495;49.922;7.966;2022-09-09T10:07:10;99514.84;;;20.45;57.55
70133;BME280;57495;49.922;7.966;2022-09-09T10:09:21;99508.25;;;20.34;55.81
70133;BME280;57495;49.922;7.966;2022-09-09T10:11:39;99503.56;;;20.48;56.73
70133;BME280;57495;49.922;7.966;2022-09-09T10:13:50;99505.66;;;20.46;56.00
70133;BME280;57495;49.922;7.966;2022-09-09T10:16:06;99511.19;;;20.33;57.89
70133;BME280;57495;49.922;7.966;2022-09-09T10:18:24;99499.28;;;20.65;56.21
70133;BME280;57495;49.922;7.966;2022-09-09T10:20:34;99501.38;;;20.63;57.60
70133;BME280;57495;49.922;7.966;2022-09-09T10:22:43;99507.19;;;20.35;58.18
70133;BME280;57495;49.922;7.966;2022-09-09T10:25:00;99501.63;;;20.55;59.16
70133;BME280;57495;49.922;7.966;2022-09-09T10:27:15;99501.38;;;20.32;58.66
70133;BME280;57495;49.922;7.966;2022-09-09T10:29:40;99497.03;;;20.24;58.68
70133;BME280;57495;49.922;7.966;2022-09-09T10:31:51;99506.25;;;20.23;57.83
70133;BME280;57495;49.922;7.966;2022-09-09T10:34:03;99505.94;;;20.38;59.15
70133;BME280;57495;49.922;7.966;2022-09-09T10:36:13;99490.97;;;20.54;59.11
70133;BME280;57495;49.922;7.966;2022-09-09T10:38:21;99498.41;;;20.72;58.38
70133;BME280;57495;49.922;7.966;2022-09-09T10:40:32;99489.53;;;21.01;56.51
70133;BME280;57495;49.922;7.966;2022-09-09T10:42:35;99491.06;;;20.97;56.12
70133;BME280;57495;49.922;7.966;2022-09-09T10:44:45;99478.84;;;21.07;56.08
70133;BME280;57495;49.922;7.966;2022-09-09T10:47:05;99486.47;;;21.35;56.69
70133;BME280;57495;49.922;7.966;2022-09-09T10:49:20;99488.66;;;21.26;55.28
70133;BME280;57495;49.922;7.966;2022-09-09T10:51:30;99486.81;;;21.45;55.99
70133;BME280;57495;49.922;7.966;2022-09-09T10:53:37;99483.19;;;21.08;55.27
70133;BME280;57495;49.922;7.966;2022-09-09T10:55:45;99486.16;;;21.61;54.89
70133;BME280;57495;49.922;7.966;2022-09-09T10:57:52;99473.00;;;22.07;53.05
70133;BME280;57495;49.922;7.966;2022-09-09T10:59:57;99486.84;;;21.20;52.95
70133;BME280;57495;49.922;7.966;2022-09-09T11:02:06;99485.19;;;21.56;52.22